La Belle — WDC2767 — position and weather

sailwx.info

Track history (hours):
 
Tides and Currents Weather Stations Pressure Air Temp Water Temp Dewpoint Dewpoint Depression Visibility Wind Speed Wind Dir Waves Ship Positions

La Belle

Owner: Double G Marine, LLC, Houma, LA. More information available from US FCC via Universal Licensing System and Coast Guard Vessel Documentation Center.

Last reported at 2018-Jan-20 16:08 UTC. Time now 2018-Jan-23 18:23 UTC.
Position N 29°34' W 090°29'.

Length 20 m.

Type: Towing. MMSI: 366997450.

Date/timePositionNaut miles runAvg speedWind from/ knotsBaromVisibWave heightAir tempDewpointWater temp
2018-Jan-20 16:08N 29°34' W 090°29'1 6.2
2018-Jan-20 16:00N 29°34' W 090°30'3 6.2
2018-Jan-20 15:28N 29°34' W 090°34'3 5.7
2018-Jan-20 15:00N 29°35' W 090°37'3 6.4
2018-Jan-20 14:30N 29°36' W 090°40'2 4.0
2018-Jan-20 14:00N 29°36' W 090°43'2 3.9
2018-Jan-20 13:30N 29°34' W 090°44'0 0.1
2018-Jan-20 13:00N 29°34' W 090°44'0 0.0
2018-Jan-20 12:30N 29°34' W 090°44'0 0.0
2018-Jan-20 12:00N 29°34' W 090°44'0 0.0
2018-Jan-20 11:30N 29°34' W 090°44'0 0.0
2018-Jan-20 11:00N 29°34' W 090°44'0 0.0
2018-Jan-20 10:30N 29°34' W 090°44'0 0.0
2018-Jan-20 10:00N 29°34' W 090°44'0 0.0
2018-Jan-20 09:30N 29°34' W 090°44'0 0.0
2018-Jan-20 09:00N 29°34' W 090°44'0 0.0
2018-Jan-20 08:30N 29°34' W 090°44'0 0.0
2018-Jan-20 08:00N 29°34' W 090°44'0 0.0
2018-Jan-20 07:30N 29°34' W 090°44'0 0.0
2018-Jan-20 07:00N 29°34' W 090°44'0 0.0
2018-Jan-20 06:30N 29°34' W 090°44'0 0.0
2018-Jan-20 06:00N 29°34' W 090°44'0 0.0
2018-Jan-20 05:28N 29°34' W 090°44'0 0.2
2018-Jan-20 05:00N 29°34' W 090°44'2 3.3
2018-Jan-20 04:30N 29°35' W 090°43'2 3.5
2018-Jan-20 04:00N 29°37' W 090°41'3 5.8
2018-Jan-20 03:30N 29°35' W 090°38'3 5.1
2018-Jan-20 03:00N 29°35' W 090°35'3 5.6
2018-Jan-20 02:30N 29°34' W 090°33'3 5.2
2018-Jan-20 02:00N 29°34' W 090°29'2 4.5
2018-Jan-20 01:30N 29°33' W 090°27'  
2018-Jan-11 22:41N 29°34' W 090°29'2 7.5
2018-Jan-11 22:28N 29°34' W 090°31'4 7.3
2018-Jan-11 21:57N 29°34' W 090°35'3 6.6
2018-Jan-11 21:30N 29°35' W 090°38'3 6.8
2018-Jan-11 21:00N 29°37' W 090°42'3 5.0
2018-Jan-11 20:30N 29°35' W 090°43'0 1.0
2018-Jan-11 20:00N 29°34' W 090°43'0 0.0
2018-Jan-11 19:30N 29°34' W 090°43'0 0.0
2018-Jan-11 18:59N 29°34' W 090°43'0 0.0
2018-Jan-11 18:30N 29°34' W 090°43'0 0.0
2018-Jan-11 18:00N 29°34' W 090°43'0 0.0
2018-Jan-11 17:30N 29°34' W 090°43'0 0.0
2018-Jan-11 17:00N 29°34' W 090°43'0 0.0
2018-Jan-11 16:30N 29°34' W 090°43'0 0.0
2018-Jan-11 16:00N 29°34' W 090°43'0 0.0
2018-Jan-11 15:30N 29°34' W 090°43'0 0.0
2018-Jan-11 15:00N 29°34' W 090°43'0 0.0
2018-Jan-11 14:30N 29°34' W 090°43'1 1.3
2018-Jan-11 14:00N 29°34' W 090°42'1 1.9
2018-Jan-11 13:30N 29°33' W 090°42'1 1.9
2018-Jan-11 13:00N 29°34' W 090°42'1 1.3
2018-Jan-11 12:30N 29°34' W 090°43'0 0.0
2018-Jan-11 12:00N 29°34' W 090°43'0 0.0
2018-Jan-11 11:30N 29°34' W 090°43'  
Track history (hours):
 
Tides and Currents Weather Stations Pressure Air Temp Water Temp Dewpoint Dewpoint Depression Visibility Wind Speed Wind Dir Waves Ship Positions

La Belle

Owner: Double G Marine, LLC, Houma, LA. More information available from US FCC via Universal Licensing System and Coast Guard Vessel Documentation Center.

Last reported at 2018-Jan-20 16:08 UTC. Time now 2018-Jan-23 18:23 UTC.
Position N 29°34' W 090°29'.

Length 20 m.

Type: Towing. MMSI: 366997450.

Date/timePositionNaut miles runAvg speedWind from/ knotsBaromVisibWave heightAir tempDewpointWater temp
2018-Jan-20 16:08N 29°34' W 090°29'1 6.2
2018-Jan-20 16:00N 29°34' W 090°30'3 6.2
2018-Jan-20 15:28N 29°34' W 090°34'3 5.7
2018-Jan-20 15:00N 29°35' W 090°37'3 6.4
2018-Jan-20 14:30N 29°36' W 090°40'2 4.0
2018-Jan-20 14:00N 29°36' W 090°43'2 3.9
2018-Jan-20 13:30N 29°34' W 090°44'0 0.1
2018-Jan-20 13:00N 29°34' W 090°44'0 0.0
2018-Jan-20 12:30N 29°34' W 090°44'0 0.0
2018-Jan-20 12:00N 29°34' W 090°44'0 0.0
2018-Jan-20 11:30N 29°34' W 090°44'0 0.0
2018-Jan-20 11:00N 29°34' W 090°44'0 0.0
2018-Jan-20 10:30N 29°34' W 090°44'0 0.0
2018-Jan-20 10:00N 29°34' W 090°44'0 0.0
2018-Jan-20 09:30N 29°34' W 090°44'0 0.0
2018-Jan-20 09:00N 29°34' W 090°44'0 0.0
2018-Jan-20 08:30N 29°34' W 090°44'0 0.0
2018-Jan-20 08:00N 29°34' W 090°44'0 0.0
2018-Jan-20 07:30N 29°34' W 090°44'0 0.0
2018-Jan-20 07:00N 29°34' W 090°44'0 0.0
2018-Jan-20 06:30N 29°34' W 090°44'0 0.0
2018-Jan-20 06:00N 29°34' W 090°44'0 0.0
2018-Jan-20 05:28N 29°34' W 090°44'0 0.2
2018-Jan-20 05:00N 29°34' W 090°44'2 3.3
2018-Jan-20 04:30N 29°35' W 090°43'2 3.5
2018-Jan-20 04:00N 29°37' W 090°41'3 5.8
2018-Jan-20 03:30N 29°35' W 090°38'3 5.1
2018-Jan-20 03:00N 29°35' W 090°35'3 5.6
2018-Jan-20 02:30N 29°34' W 090°33'3 5.2
2018-Jan-20 02:00N 29°34' W 090°29'2 4.5
2018-Jan-20 01:30N 29°33' W 090°27'  
2018-Jan-11 22:41N 29°34' W 090°29'2 7.5
2018-Jan-11 22:28N 29°34' W 090°31'4 7.3
2018-Jan-11 21:57N 29°34' W 090°35'3 6.6
2018-Jan-11 21:30N 29°35' W 090°38'3 6.8
2018-Jan-11 21:00N 29°37' W 090°42'3 5.0
2018-Jan-11 20:30N 29°35' W 090°43'0 1.0
2018-Jan-11 20:00N 29°34' W 090°43'0 0.0
2018-Jan-11 19:30N 29°34' W 090°43'0 0.0
2018-Jan-11 18:59N 29°34' W 090°43'0 0.0
2018-Jan-11 18:30N 29°34' W 090°43'0 0.0
2018-Jan-11 18:00N 29°34' W 090°43'0 0.0
2018-Jan-11 17:30N 29°34' W 090°43'0 0.0
2018-Jan-11 17:00N 29°34' W 090°43'0 0.0
2018-Jan-11 16:30N 29°34' W 090°43'0 0.0
2018-Jan-11 16:00N 29°34' W 090°43'0 0.0
2018-Jan-11 15:30N 29°34' W 090°43'0 0.0
2018-Jan-11 15:00N 29°34' W 090°43'0 0.0
2018-Jan-11 14:30N 29°34' W 090°43'1 1.3
2018-Jan-11 14:00N 29°34' W 090°42'1 1.9
2018-Jan-11 13:30N 29°33' W 090°42'1 1.9
2018-Jan-11 13:00N 29°34' W 090°42'1 1.3
2018-Jan-11 12:30N 29°34' W 090°43'0 0.0
2018-Jan-11 12:00N 29°34' W 090°43'0 0.0
2018-Jan-11 11:30N 29°34' W 090°43'  

Dump ship's entire track history